createdAt,value
2018-09-30T00:00:36.125Z,7.23
2018-09-30T00:03:04.623Z,6.83
2018-09-30T00:05:32.819Z,6.17
2018-09-30T00:08:01.212Z,7.77
2018-09-30T00:10:29.407Z,7.37
2018-09-30T00:12:57.813Z,5.13
2018-09-30T00:15:26.001Z,6.07
2018-09-30T00:17:54.820Z,4.73
2018-09-30T00:20:22.995Z,6.10
2018-09-30T00:22:51.395Z,7.60
2018-09-30T00:25:24.952Z,6.00
2018-09-30T00:27:53.373Z,7.67
2018-09-30T00:30:21.561Z,7.80
2018-09-30T00:32:50.100Z,6.10
2018-09-30T00:35:18.487Z,5.03
2018-09-30T00:37:46.674Z,5.33
2018-09-30T00:40:14.867Z,6.60
2018-09-30T00:42:43.088Z,5.57
2018-09-30T00:45:11.247Z,6.03
2018-09-30T00:47:39.452Z,5.33
2018-09-30T00:50:07.960Z,5.60
2018-09-30T00:52:36.431Z,4.43
2018-09-30T00:55:04.615Z,7.20
2018-09-30T00:57:33.079Z,4.93
2018-09-30T01:00:01.547Z,5.00
2018-09-30T01:02:29.771Z,6.10
2018-09-30T01:04:58.210Z,4.93
2018-09-30T01:07:26.691Z,4.37
2018-09-30T01:09:55.092Z,8.57
2018-09-30T01:12:23.303Z,5.60
2018-09-30T01:14:51.580Z,7.27
2018-09-30T01:17:20.045Z,7.43
2018-09-30T01:19:48.434Z,5.80
2018-09-30T01:22:16.817Z,5.77
2018-09-30T01:24:45.194Z,6.17
2018-09-30T01:27:13.643Z,7.17
2018-09-30T01:29:42.132Z,5.10
2018-09-30T01:32:10.548Z,6.23
2018-09-30T01:34:39.082Z,7.80
2018-09-30T01:37:07.649Z,6.20
2018-09-30T01:39:36.019Z,5.90
2018-09-30T01:42:04.552Z,5.20
2018-09-30T01:44:32.963Z,4.70
2018-09-30T01:47:01.331Z,4.53
2018-09-30T01:49:29.738Z,5.97
2018-09-30T01:52:09.466Z,5.47
2018-09-30T01:54:37.860Z,4.90
2018-09-30T01:57:06.295Z,6.70
2018-09-30T01:59:34.797Z,5.30
2018-09-30T02:02:03.253Z,7.70
2018-09-30T02:04:31.655Z,5.23
2018-09-30T02:07:00.077Z,5.80
2018-09-30T02:09:28.509Z,3.93
2018-09-30T02:11:57.056Z,8.73
2018-09-30T02:14:25.524Z,5.63
2018-09-30T02:16:53.916Z,4.87
2018-09-30T02:19:22.369Z,4.40
2018-09-30T02:21:50.756Z,6.70
2018-09-30T02:24:19.182Z,6.10
2018-09-30T02:26:47.705Z,5.40
2018-09-30T02:29:16.090Z,4.87
2018-09-30T02:31:44.527Z,4.67
2018-09-30T02:34:12.942Z,4.70
2018-09-30T02:36:41.469Z,3.43
2018-09-30T02:39:09.983Z,4.13
2018-09-30T02:41:38.654Z,5.60
2018-09-30T02:44:07.146Z,6.00
2018-09-30T02:46:35.564Z,5.70
2018-09-30T02:49:04.062Z,4.97
2018-09-30T02:51:32.631Z,3.67
2018-09-30T02:54:01.111Z,5.23
2018-09-30T02:56:29.623Z,3.57
2018-09-30T02:58:57.989Z,4.73
2018-09-30T03:01:26.480Z,5.93
2018-09-30T03:03:55.029Z,4.40
2018-09-30T03:06:28.886Z,5.73
2018-09-30T03:09:02.745Z,4.93
2018-09-30T03:11:31.104Z,5.07
2018-09-30T03:13:59.514Z,6.23
2018-09-30T03:16:28.007Z,2.93
2018-09-30T03:18:56.506Z,4.83
2018-09-30T03:21:24.978Z,3.63
2018-09-30T03:23:53.363Z,3.23
2018-09-30T03:26:21.741Z,5.57
2018-09-30T03:28:50.212Z,5.93
2018-09-30T03:31:18.710Z,5.17
2018-09-30T03:33:47.069Z,4.33
2018-09-30T03:36:15.522Z,4.63
2018-09-30T03:38:44.375Z,3.90
2018-09-30T03:41:12.814Z,4.83
2018-09-30T03:43:41.624Z,6.20
2018-09-30T03:46:09.817Z,5.63
2018-09-30T03:48:38.027Z,7.27
2018-09-30T03:51:06.637Z,4.20
2018-09-30T03:53:34.806Z,3.43
2018-09-30T03:56:03.023Z,2.80
2018-09-30T03:58:31.594Z,3.87
2018-09-30T04:01:00.141Z,4.40
2018-09-30T04:03:28.632Z,8.70
2018-09-30T04:05:56.798Z,3.53
2018-09-30T04:08:24.988Z,4.77
2018-09-30T04:10:53.408Z,6.63
2018-09-30T04:13:21.583Z,3.70
2018-09-30T04:15:49.764Z,5.03
2018-09-30T04:18:18.336Z,3.30
2018-09-30T04:20:46.514Z,4.80
2018-09-30T04:23:14.730Z,7.27
2018-09-30T04:25:42.920Z,4.63
2018-09-30T04:28:11.536Z,2.60
2018-09-30T04:30:39.708Z,5.03
2018-09-30T04:33:14.876Z,4.70
2018-09-30T04:35:43.040Z,4.00
2018-09-30T04:38:11.671Z,5.43
2018-09-30T04:40:39.872Z,2.93
2018-09-30T04:43:08.061Z,3.70
2018-09-30T04:45:36.629Z,6.23
2018-09-30T04:48:05.322Z,6.53
2018-09-30T04:50:33.756Z,5.07
2018-09-30T04:53:02.163Z,5.40
2018-09-30T04:55:30.728Z,6.43
2018-09-30T04:57:58.923Z,4.43
2018-09-30T05:00:27.121Z,3.77
2018-09-30T05:02:55.288Z,3.73
2018-09-30T05:05:30.284Z,4.73
2018-09-30T05:07:58.491Z,3.93
2018-09-30T05:10:26.653Z,4.73
2018-09-30T05:12:55.191Z,5.00
2018-09-30T05:15:23.384Z,3.50
2018-09-30T05:17:51.568Z,3.40
2018-09-30T05:20:19.769Z,4.83
2018-09-30T05:22:47.972Z,4.70
2018-09-30T05:25:16.177Z,3.73
2018-09-30T05:27:44.692Z,4.17
2018-09-30T05:30:13.504Z,4.23
2018-09-30T05:32:41.705Z,5.37
2018-09-30T05:35:09.904Z,4.47
2018-09-30T05:37:38.120Z,5.43
2018-09-30T05:40:06.316Z,6.53
2018-09-30T05:42:34.528Z,3.20
2018-09-30T05:45:02.773Z,3.70
2018-09-30T05:47:30.980Z,3.03
2018-09-30T05:49:59.191Z,3.03
2018-09-30T05:52:27.763Z,3.53
2018-09-30T05:54:56.279Z,4.63
2018-09-30T05:57:24.972Z,3.47
2018-09-30T05:59:53.375Z,5.10
2018-09-30T06:02:21.920Z,5.43
2018-09-30T06:04:50.150Z,5.37
2018-09-30T06:07:18.315Z,6.67
2018-09-30T06:09:46.543Z,5.93
2018-09-30T06:12:14.736Z,2.80
2018-09-30T06:14:43.313Z,6.10
2018-09-30T06:17:11.796Z,7.40
2018-09-30T06:19:40.051Z,4.40
2018-09-30T06:22:08.279Z,6.20
2018-09-30T06:24:36.485Z,6.37
2018-09-30T06:27:04.752Z,4.80
2018-09-30T06:29:32.993Z,5.00
2018-09-30T06:32:01.605Z,4.27
2018-09-30T06:34:30.275Z,6.47
2018-09-30T06:36:58.488Z,6.07
2018-09-30T06:39:26.689Z,5.30
2018-09-30T06:41:54.915Z,6.03
2018-09-30T06:44:23.145Z,5.30
2018-09-30T06:46:51.401Z,4.47
2018-09-30T06:49:19.864Z,4.80
2018-09-30T06:51:48.121Z,4.40
2018-09-30T06:54:16.766Z,5.47
2018-09-30T06:56:45.077Z,3.43
2018-09-30T06:59:13.913Z,7.33
2018-09-30T07:01:42.124Z,4.03
2018-09-30T07:04:10.524Z,5.27
2018-09-30T07:06:39.035Z,5.73
2018-09-30T07:09:07.927Z,5.03
2018-09-30T07:11:37.398Z,6.93
2018-09-30T07:14:05.692Z,5.87
2018-09-30T07:16:35.239Z,5.97
2018-09-30T07:19:04.453Z,7.60
2018-09-30T07:21:34.302Z,7.00
2018-09-30T07:24:04.546Z,6.27
2018-09-30T07:26:34.312Z,7.27
2018-09-30T07:29:04.106Z,4.63
2018-09-30T07:31:33.761Z,6.20
2018-09-30T07:34:03.656Z,4.33
2018-09-30T07:36:33.613Z,6.30
2018-09-30T07:39:03.505Z,4.50
2018-09-30T07:41:31.742Z,4.87
2018-09-30T07:44:01.184Z,5.50
2018-09-30T07:46:30.719Z,6.73
2018-09-30T07:49:00.719Z,4.07
2018-09-30T07:51:30.450Z,7.97
2018-09-30T07:54:00.203Z,7.97
2018-09-30T07:56:30.023Z,3.73
2018-09-30T07:59:00.176Z,7.97
2018-09-30T08:01:29.704Z,6.13
2018-09-30T08:03:59.215Z,5.30
2018-09-30T08:06:29.222Z,5.50
2018-09-30T08:08:58.765Z,5.17
2018-09-30T08:11:28.720Z,4.83
2018-09-30T08:13:58.454Z,3.17
2018-09-30T08:16:28.135Z,4.87
2018-09-30T08:18:58.081Z,3.90
2018-09-30T08:21:28.228Z,3.63
2018-09-30T08:23:59.094Z,5.67
2018-09-30T08:26:29.009Z,5.00
2018-09-30T08:28:58.652Z,5.90
2018-09-30T08:31:28.370Z,5.57
2018-09-30T08:33:58.857Z,5.60
2018-09-30T08:36:28.964Z,5.43
2018-09-30T08:38:59.089Z,4.17
2018-09-30T08:41:28.879Z,4.67
2018-09-30T08:43:58.628Z,4.17
2018-09-30T08:46:28.361Z,7.77
2018-09-30T08:48:58.207Z,7.77
2018-09-30T08:51:28.221Z,4.30
2018-09-30T08:53:57.957Z,5.23
2018-09-30T08:56:26.245Z,6.10
2018-09-30T08:58:54.536Z,4.87
2018-09-30T09:01:22.773Z,4.57
2018-09-30T09:03:50.996Z,4.37
2018-09-30T09:06:22.286Z,4.97
2018-09-30T09:08:52.010Z,5.67
2018-09-30T09:11:21.605Z,5.23
2018-09-30T09:13:51.246Z,4.77
2018-09-30T09:16:20.865Z,4.47
2018-09-30T09:19:01.736Z,8.53
2018-09-30T09:21:52.629Z,4.60
2018-09-30T09:31:59.177Z,7.03
2018-09-30T09:45:01.188Z,6.13
2018-09-30T09:51:20.969Z,6.83
2018-09-30T09:57:40.114Z,5.53
2018-09-30T10:00:38.760Z,8.13
2018-09-30T10:03:38.290Z,6.37
2018-09-30T10:06:17.926Z,5.83
2018-09-30T10:08:47.616Z,5.40
2018-09-30T10:11:34.840Z,5.07
2018-09-30T10:14:47.759Z,4.23
2018-09-30T10:17:25.709Z,5.47
2018-09-30T10:19:55.747Z,4.27
2018-09-30T10:22:26.878Z,8.03
2018-09-30T10:24:56.612Z,7.80
2018-09-30T10:27:26.338Z,7.07
2018-09-30T10:29:56.102Z,6.37
2018-09-30T10:32:26.333Z,9.87
2018-09-30T10:34:56.287Z,4.50
2018-09-30T10:37:26.028Z,6.33
2018-09-30T10:39:55.896Z,5.80
2018-09-30T10:42:25.852Z,4.83
2018-09-30T10:44:55.461Z,6.00
2018-09-30T10:47:25.368Z,4.57
2018-09-30T10:49:55.358Z,5.50
2018-09-30T10:52:25.308Z,5.53
2018-09-30T10:54:55.374Z,3.27
2018-09-30T10:57:25.324Z,4.93
2018-09-30T10:59:55.503Z,4.33
2018-09-30T11:02:25.890Z,5.67
2018-09-30T11:04:55.475Z,5.27
2018-09-30T11:07:25.155Z,4.07
2018-09-30T11:09:55.428Z,3.93
2018-09-30T11:12:25.872Z,5.13
2018-09-30T11:14:55.713Z,7.20
2018-09-30T11:17:26.139Z,5.17
2018-09-30T11:19:55.896Z,6.07
2018-09-30T11:22:25.650Z,4.77
2018-09-30T11:24:56.455Z,4.47
2018-09-30T11:27:26.229Z,4.97
2018-09-30T11:29:55.700Z,5.57
2018-09-30T11:32:25.340Z,6.20
2018-09-30T11:34:55.177Z,4.80
2018-09-30T11:37:25.028Z,5.07
2018-09-30T11:39:54.401Z,5.07
2018-09-30T11:42:24.332Z,8.33
2018-09-30T11:44:54.005Z,7.80
2018-09-30T11:47:23.657Z,5.10
2018-09-30T11:49:54.032Z,7.80
2018-09-30T11:52:24.032Z,4.40
2018-09-30T11:54:52.452Z,6.77
2018-09-30T11:57:21.188Z,3.87
2018-09-30T11:59:49.754Z,4.33
2018-09-30T12:02:18.100Z,6.87
2018-09-30T12:04:46.390Z,6.70
2018-09-30T12:07:16.299Z,5.90
2018-09-30T12:09:48.012Z,5.13
2018-09-30T12:12:17.738Z,6.07
2018-09-30T12:14:47.448Z,4.03
2018-09-30T12:17:17.254Z,6.40
2018-09-30T12:19:47.058Z,6.17
2018-09-30T12:22:15.328Z,4.77
2018-09-30T12:24:43.610Z,3.63
2018-09-30T12:27:12.606Z,6.83
2018-09-30T12:29:41.964Z,6.77
2018-09-30T12:32:11.184Z,9.37
2018-09-30T12:34:40.511Z,4.20
2018-09-30T12:37:10.036Z,6.33
2018-09-30T12:39:38.512Z,6.30
2018-09-30T12:42:07.059Z,6.90
2018-09-30T12:44:36.014Z,6.23
2018-09-30T12:47:05.409Z,5.93
2018-09-30T12:49:35.134Z,8.53
2018-09-30T12:52:04.948Z,4.10
2018-09-30T12:54:34.561Z,5.57
2018-09-30T12:57:04.998Z,4.70
2018-09-30T12:59:34.424Z,7.40
2018-09-30T13:02:03.579Z,5.73
2018-09-30T13:04:32.564Z,6.70
2018-09-30T13:07:01.361Z,2.93
2018-09-30T13:09:30.134Z,6.40
2018-09-30T13:11:58.773Z,6.33
2018-09-30T13:14:27.291Z,6.00
2018-09-30T13:16:55.599Z,8.07
2018-09-30T13:19:23.889Z,3.73
2018-09-30T13:21:52.595Z,5.17
2018-09-30T13:24:20.939Z,5.53
2018-09-30T13:26:49.848Z,7.93
2018-09-30T13:29:18.980Z,5.70
2018-09-30T13:31:47.893Z,7.93
2018-09-30T13:34:17.184Z,4.63
2018-09-30T13:36:46.445Z,4.47
2018-09-30T13:39:15.374Z,5.33
2018-09-30T13:41:44.570Z,4.13
2018-09-30T13:44:13.321Z,4.07
2018-09-30T13:46:42.238Z,8.53
2018-09-30T13:49:11.536Z,6.53
2018-09-30T13:51:40.565Z,7.03
2018-09-30T13:54:09.977Z,7.00
2018-09-30T13:56:39.586Z,5.30
2018-09-30T13:59:09.621Z,4.67
2018-09-30T14:01:40.084Z,8.10
2018-09-30T14:04:09.810Z,9.63
2018-09-30T14:06:38.894Z,6.07
2018-09-30T14:09:08.737Z,8.87
2018-09-30T14:11:37.431Z,6.77
2018-09-30T14:14:07.500Z,9.47
2018-09-30T14:16:36.322Z,6.30
2018-09-30T14:19:06.845Z,6.43
2018-09-30T14:21:37.126Z,4.80
2018-09-30T14:24:05.591Z,5.63
2018-09-30T14:26:34.450Z,6.67
2018-09-30T14:29:05.675Z,4.43
2018-09-30T14:31:36.689Z,5.73
2018-09-30T14:34:07.093Z,7.53
2018-09-30T14:36:36.018Z,7.10
2018-09-30T14:39:07.844Z,6.47
2018-09-30T14:41:36.125Z,5.87
2018-09-30T14:44:04.863Z,6.50
2018-09-30T14:46:33.448Z,4.50
2018-09-30T14:49:02.350Z,5.70
2018-09-30T14:51:31.457Z,4.93
2018-09-30T14:54:00.512Z,7.43
2018-09-30T14:56:29.330Z,6.53
2018-09-30T14:58:58.749Z,7.80
2018-09-30T15:01:27.074Z,5.67
2018-09-30T15:03:55.762Z,4.60
2018-09-30T15:06:25.650Z,7.70
2018-09-30T15:09:14.177Z,5.43
2018-09-30T15:11:44.005Z,6.70
2018-09-30T15:14:13.703Z,6.20
2018-09-30T15:16:43.590Z,6.33
2018-09-30T15:19:13.040Z,6.40
2018-09-30T15:21:43.011Z,6.10
2018-09-30T15:24:11.974Z,8.67
2018-09-30T15:26:41.822Z,5.90
2018-09-30T15:29:11.340Z,6.23
2018-09-30T15:31:41.534Z,8.27
2018-09-30T15:34:11.241Z,7.73
2018-09-30T15:36:41.050Z,5.67
2018-09-30T15:39:12.615Z,5.73
2018-09-30T15:41:42.669Z,5.77
2018-09-30T15:44:12.808Z,7.20
2018-09-30T15:46:41.244Z,6.67
2018-09-30T15:49:11.113Z,6.20
2018-09-30T15:51:42.023Z,7.60
2018-09-30T15:54:12.102Z,6.30
2018-09-30T15:56:42.949Z,9.30
2018-09-30T15:59:12.879Z,7.87
2018-09-30T16:01:42.568Z,6.87
2018-09-30T16:04:12.548Z,6.30
2018-09-30T16:06:42.783Z,5.10
2018-09-30T16:09:13.197Z,5.87
2018-09-30T16:11:42.997Z,6.93
2018-09-30T16:14:11.698Z,5.43
2018-09-30T16:16:41.519Z,6.70
2018-09-30T16:19:11.574Z,6.40
2018-09-30T16:21:41.423Z,5.97
2018-09-30T16:24:11.141Z,4.67
2018-09-30T16:26:41.025Z,5.90
2018-09-30T16:29:10.935Z,8.57
2018-09-30T16:31:40.830Z,4.50
2018-09-30T16:34:10.847Z,7.70
2018-09-30T16:36:40.870Z,8.23
2018-09-30T16:39:14.116Z,6.83
2018-09-30T16:41:44.356Z,6.10
2018-09-30T16:44:14.401Z,8.37
2018-09-30T16:46:44.630Z,5.00
2018-09-30T16:49:14.399Z,6.73
2018-09-30T16:51:44.237Z,6.17
2018-09-30T16:54:13.064Z,5.90
2018-09-30T16:56:42.891Z,9.00
2018-09-30T16:59:12.932Z,5.50
2018-09-30T17:01:42.723Z,5.77
2018-09-30T17:04:12.526Z,5.80
2018-09-30T17:06:42.542Z,5.83
2018-09-30T17:09:12.422Z,5.60
2018-09-30T17:11:42.219Z,6.50
2018-09-30T17:14:11.924Z,4.83
2018-09-30T17:16:41.603Z,7.70
2018-09-30T17:19:11.089Z,4.70
2018-09-30T17:21:41.376Z,4.83
2018-09-30T17:24:11.247Z,5.63
2018-09-30T17:26:41.109Z,5.70
2018-09-30T17:29:11.215Z,6.30
2018-09-30T17:31:41.182Z,8.87
2018-09-30T17:34:11.667Z,7.07
2018-09-30T17:36:41.200Z,6.10
2018-09-30T17:39:11.367Z,6.57
2018-09-30T17:41:41.771Z,6.77
2018-09-30T17:44:11.920Z,6.40
2018-09-30T17:46:42.274Z,7.67
2018-09-30T17:49:12.218Z,9.07
2018-09-30T17:51:41.611Z,6.57
2018-09-30T17:54:11.983Z,8.13
2018-09-30T17:56:41.635Z,6.03
2018-09-30T17:59:10.772Z,6.87
2018-09-30T18:01:40.511Z,7.33
2018-09-30T18:04:11.112Z,6.83
2018-09-30T18:06:40.425Z,10.80
2018-09-30T18:09:11.823Z,7.00
2018-09-30T18:11:41.162Z,8.33
2018-09-30T18:14:11.092Z,8.67
2018-09-30T18:16:40.697Z,7.97
2018-09-30T18:19:10.385Z,7.07
2018-09-30T18:21:40.037Z,11.33
2018-09-30T18:24:09.829Z,8.87
2018-09-30T18:26:39.504Z,8.33
2018-09-30T18:29:09.529Z,7.93
2018-09-30T18:31:39.649Z,8.27
2018-09-30T18:34:09.480Z,9.27
2018-09-30T18:36:39.034Z,9.63
2018-09-30T18:39:10.673Z,8.30
2018-09-30T18:41:40.353Z,11.90
2018-09-30T18:44:10.376Z,11.47
2018-09-30T18:46:40.771Z,9.03
2018-09-30T18:49:10.420Z,8.57
2018-09-30T18:51:40.341Z,9.60
2018-09-30T18:54:09.883Z,8.33
2018-09-30T18:56:39.505Z,8.37
2018-09-30T18:59:08.918Z,6.50
2018-09-30T19:01:38.653Z,6.10
2018-09-30T19:04:08.601Z,9.43
2018-09-30T19:06:38.249Z,11.47
2018-09-30T19:09:09.713Z,10.87
2018-09-30T19:11:39.375Z,8.00
2018-09-30T19:14:10.115Z,9.30
2018-09-30T19:16:39.782Z,7.00
2018-09-30T19:19:09.647Z,8.90
2018-09-30T19:21:39.432Z,8.93
2018-09-30T19:24:10.268Z,8.60
2018-09-30T19:26:40.258Z,7.93
2018-09-30T19:29:10.049Z,7.10
2018-09-30T19:31:39.956Z,7.73
2018-09-30T19:34:09.956Z,8.70
2018-09-30T19:36:39.707Z,8.73
2018-09-30T19:39:11.144Z,8.77
2018-09-30T19:41:40.876Z,10.80
2018-09-30T19:44:10.955Z,8.03
2018-09-30T19:46:40.707Z,10.47
2018-09-30T19:49:10.471Z,9.30
2018-09-30T19:51:40.214Z,8.60
2018-09-30T19:54:10.281Z,7.97
2018-09-30T19:56:39.930Z,7.73
2018-09-30T19:59:09.694Z,11.83
2018-09-30T20:01:39.583Z,11.63
2018-09-30T20:04:09.290Z,11.00
2018-09-30T20:06:39.003Z,10.20
2018-09-30T20:09:09.721Z,8.87
2018-09-30T20:11:39.986Z,8.97
2018-09-30T20:14:09.869Z,10.10
2018-09-30T20:16:39.663Z,7.60
2018-09-30T20:19:09.752Z,8.30
2018-09-30T20:21:39.699Z,8.93
2018-09-30T20:24:09.539Z,10.17
2018-09-30T20:26:39.280Z,7.80
2018-09-30T20:29:09.092Z,8.73
2018-09-30T20:31:38.908Z,7.57
2018-09-30T20:34:08.423Z,8.37
2018-09-30T20:36:38.257Z,9.47
2018-09-30T20:39:08.729Z,8.07
2018-09-30T20:41:38.530Z,7.27
2018-09-30T20:44:08.437Z,8.60
2018-09-30T20:46:38.092Z,7.63
2018-09-30T20:49:07.903Z,7.67
2018-09-30T20:51:37.586Z,8.37
2018-09-30T20:54:07.501Z,6.20
2018-09-30T20:56:37.720Z,7.60
2018-09-30T20:59:07.387Z,9.10
2018-09-30T21:01:37.185Z,11.10
2018-09-30T21:04:07.039Z,5.83
2018-09-30T21:06:44.520Z,6.37
2018-09-30T21:09:17.123Z,8.73
2018-09-30T21:11:47.055Z,7.07
2018-09-30T21:14:16.875Z,9.00
2018-09-30T21:16:46.710Z,9.63
2018-09-30T21:19:16.929Z,6.80
2018-09-30T21:21:46.262Z,6.80
2018-09-30T21:24:16.063Z,8.63
2018-09-30T21:26:46.663Z,10.80
2018-09-30T21:29:16.370Z,7.97
2018-09-30T21:31:46.164Z,8.23
2018-09-30T21:34:16.107Z,8.90
2018-09-30T21:36:46.506Z,9.47
2018-09-30T21:39:16.361Z,8.90
2018-09-30T21:41:46.158Z,13.00
2018-09-30T21:44:15.809Z,14.70
2018-09-30T21:46:45.643Z,9.87
2018-09-30T21:49:15.391Z,11.97
2018-09-30T21:51:45.216Z,9.20
2018-09-30T21:54:14.910Z,8.87
2018-09-30T21:56:44.638Z,10.03
2018-09-30T21:59:14.391Z,8.43
2018-09-30T22:01:45.526Z,10.43
2018-09-30T22:04:14.722Z,12.90
2018-09-30T22:06:43.533Z,11.73
2018-09-30T22:09:12.708Z,10.20
2018-09-30T22:11:41.852Z,10.00
2018-09-30T22:14:11.318Z,12.40
2018-09-30T22:16:40.391Z,14.63
2018-09-30T22:19:09.462Z,13.97
2018-09-30T22:21:38.460Z,12.93
2018-09-30T22:24:07.610Z,9.17
2018-09-30T22:26:36.670Z,13.60
2018-09-30T22:29:05.581Z,12.43
2018-09-30T22:31:34.922Z,15.30
2018-09-30T22:34:04.428Z,15.33
2018-09-30T22:36:33.782Z,14.10
2018-09-30T22:39:02.967Z,14.70
2018-09-30T22:41:31.965Z,15.27
2018-09-30T22:44:01.411Z,15.73
2018-09-30T22:46:30.301Z,14.50
2018-09-30T22:48:59.249Z,14.03
2018-09-30T22:51:28.028Z,14.67
2018-09-30T22:53:58.373Z,13.50
2018-09-30T22:56:27.405Z,13.30
2018-09-30T22:58:56.723Z,13.77
2018-09-30T23:01:25.608Z,14.10
2018-09-30T23:03:54.607Z,13.47
2018-09-30T23:06:23.372Z,10.97
2018-09-30T23:08:52.243Z,11.57
2018-09-30T23:11:21.169Z,11.10
2018-09-30T23:13:50.110Z,11.33
2018-09-30T23:16:19.047Z,13.97
2018-09-30T23:18:47.861Z,12.37
2018-09-30T23:21:16.793Z,15.80
2018-09-30T23:23:45.523Z,15.03
2018-09-30T23:26:14.327Z,14.43
2018-09-30T23:28:43.170Z,14.43
2018-09-30T23:31:12.703Z,13.63
2018-09-30T23:33:42.151Z,15.37
2018-09-30T23:36:11.126Z,12.77
2018-09-30T23:38:39.378Z,14.20
2018-09-30T23:41:07.859Z,14.93
2018-09-30T23:43:36.060Z,14.57
2018-09-30T23:46:04.247Z,14.73
2018-09-30T23:48:32.780Z,15.27
2018-09-30T23:51:00.959Z,12.03
2018-09-30T23:53:29.169Z,13.30
2018-09-30T23:55:57.373Z,13.63
2018-09-30T23:58:26.024Z,13.40
